Time;durP1;ratioP1;P1;durP2;ratioP2;P2;SDS_P1;SDS_P2;PMS_P1;PMS_P2;Temp;Humidity;BMP_temperature;BMP_pressure;BME280_temperature;BME280_humidity;BME280_pressure;Samples;Min_cycle;Max_cycle;Signal;HPM_P1;HPM_P2
2021/11/11 00:02:13;;;;;;;15.38;10.95;;;10.60;90.30;;;;;;5008496;28;20035;-76
2021/11/11 00:04:40;;;;;;;16.15;10.93;;;10.70;90.20;;;;;;4991822;28;20042;-78
2021/11/11 00:07:08;;;;;;;13.50;9.93;;;10.70;90.10;;;;;;4991666;28;20061;-78
2021/11/11 00:09:35;;;;;;;15.18;10.32;;;10.70;90.20;;;;;;4975049;28;20062;-73
2021/11/11 00:12:03;;;;;;;15.60;10.75;;;10.60;90.10;;;;;;4979965;28;20518;-77
2021/11/11 00:14:30;;;;;;;14.95;11.45;;;10.60;90.60;;;;;;4993785;28;20074;-78
2021/11/11 00:16:57;;;;;;;15.73;10.93;;;10.70;90.30;;;;;;5005118;28;20419;-78
2021/11/11 00:19:24;;;;;;;16.83;11.35;;;10.60;90.20;;;;;;4973163;28;20055;-77
2021/11/11 00:21:52;;;;;;;14.35;10.85;;;10.70;90.10;;;;;;4973468;28;20058;-78
2021/11/11 00:24:19;;;;;;;13.63;10.75;;;10.70;90.00;;;;;;4974455;28;20404;-78
2021/11/11 00:26:46;;;;;;;17.73;11.68;;;10.70;90.10;;;;;;4992661;28;20038;-74
2021/11/11 00:29:13;;;;;;;17.98;12.40;;;10.70;90.30;;;;;;4975148;28;20035;-74
2021/11/11 00:31:40;;;;;;;16.13;11.07;;;10.60;90.70;;;;;;4975358;28;20077;-78
2021/11/11 00:34:07;;;;;;;18.00;12.15;;;10.60;90.80;;;;;;5006728;28;20042;-74
2021/11/11 00:36:34;;;;;;;18.50;12.18;;;10.50;90.80;;;;;;5004899;28;20049;-75
2021/11/11 00:39:02;;;;;;;15.23;11.77;;;10.50;91.10;;;;;;4974300;28;20035;-74
2021/11/11 00:41:30;;;;;;;15.15;11.95;;;10.50;91.00;;;;;;4989652;28;20055;-74
2021/11/11 00:43:57;;;;;;;15.85;12.52;;;10.50;91.30;;;;;;4973835;28;20057;-74
2021/11/11 00:46:25;;;;;;;13.77;12.30;;;10.50;91.30;;;;;;4974253;28;20057;-76
2021/11/11 00:48:52;;;;;;;15.43;11.93;;;10.40;91.10;;;;;;4988272;28;20046;-78
2021/11/11 00:51:19;;;;;;;18.42;12.43;;;10.50;91.50;;;;;;4988793;28;20085;-74
2021/11/11 00:53:46;;;;;;;15.63;12.90;;;10.40;91.10;;;;;;4973944;28;20034;-75
2021/11/11 00:56:13;;;;;;;14.90;11.50;;;10.40;91.40;;;;;;4974114;28;20039;-76
2021/11/11 00:58:40;;;;;;;16.70;12.40;;;10.40;91.40;;;;;;4973346;28;20038;-78
2021/11/11 01:01:08;;;;;;;16.85;12.93;;;10.40;91.50;;;;;;4974140;28;20049;-74
2021/11/11 01:03:40;;;;;;;19.08;12.98;;;10.40;91.50;;;;;;4974012;28;20062;-78
2021/11/11 01:06:09;;;;;;;16.27;12.70;;;10.40;91.60;;;;;;4972944;28;20051;-74
2021/11/11 01:08:36;;;;;;;18.42;12.88;;;10.40;91.40;;;;;;4973773;28;20046;-75
2021/11/11 01:11:05;;;;;;;16.70;13.50;;;10.40;91.70;;;;;;4973690;28;20127;-75
2021/11/11 01:13:33;;;;;;;17.95;13.23;;;10.40;91.80;;;;;;4973380;28;20062;-78
2021/11/11 01:16:02;;;;;;;17.95;13.70;;;10.30;92.00;;;;;;4988572;28;20127;-74
2021/11/11 01:18:29;;;;;;;18.13;13.32;;;10.30;92.10;;;;;;4973559;28;20030;-74
2021/11/11 01:20:56;;;;;;;18.95;13.23;;;10.30;92.10;;;;;;4973350;28;20042;-78
2021/11/11 01:23:24;;;;;;;19.80;14.30;;;10.30;91.90;;;;;;5003720;28;20126;-76
2021/11/11 01:25:51;;;;;;;19.50;14.52;;;10.30;92.30;;;;;;4988192;28;20054;-74
2021/11/11 01:28:18;;;;;;;21.30;15.30;;;10.20;92.50;;;;;;4973843;28;20074;-73
2021/11/11 01:30:46;;;;;;;21.30;15.20;;;10.20;92.60;;;;;;5004465;28;20058;-74
2021/11/11 01:33:14;;;;;;;21.80;15.73;;;10.20;92.50;;;;;;4988429;28;20041;-74
2021/11/11 01:35:42;;;;;;;21.75;14.98;;;10.20;92.50;;;;;;4972314;28;20042;-74
2021/11/11 01:38:09;;;;;;;22.75;16.58;;;10.20;92.50;;;;;;4971340;28;20039;-75
2021/11/11 01:40:37;;;;;;;29.02;17.52;;;10.20;92.70;;;;;;4987445;28;20133;-75
2021/11/11 01:43:06;;;;;;;23.30;16.15;;;10.20;92.90;;;;;;4988260;28;20138;-73
2021/11/11 01:45:39;;;;;;;20.25;14.85;;;10.10;93.00;;;;;;4973084;28;20042;-78
2021/11/11 01:48:10;;;;;;;20.20;14.07;;;10.10;93.00;;;;;;4988233;28;20073;-73
2021/11/11 01:50:38;;;;;;;19.35;14.75;;;10.10;93.10;;;;;;5003745;28;20053;-78
2021/11/11 01:53:06;;;;;;;21.45;15.52;;;10.10;93.00;;;;;;4973071;28;20043;-78
2021/11/11 01:55:33;;;;;;;21.35;14.60;;;10.10;92.90;;;;;;4971249;28;20043;-74
2021/11/11 01:58:00;;;;;;;20.17;15.27;;;10.10;92.90;;;;;;4973039;28;20054;-74
2021/11/11 02:00:58;;;;;;;17.40;13.23;;;10.20;92.90;;;;;;5004276;28;20105;-74
2021/11/11 02:03:26;;;;;;;20.45;14.30;;;10.10;92.70;;;;;;4972661;28;20057;-74
2021/11/11 02:05:54;;;;;;;18.75;14.43;;;10.20;92.70;;;;;;5004003;28;20041;-76
2021/11/11 02:08:22;;;;;;;23.58;14.70;;;10.20;92.80;;;;;;4987783;28;20042;-73
2021/11/11 02:10:49;;;;;;;18.15;14.48;;;10.20;92.90;;;;;;4971798;28;20126;-78
2021/11/11 02:13:16;;;;;;;17.08;14.02;;;10.20;92.90;;;;;;4987288;28;20576;-75
2021/11/11 02:15:43;;;;;;;19.55;14.30;;;10.20;92.90;;;;;;5001937;28;20045;-75
2021/11/11 02:18:11;;;;;;;20.48;14.57;;;10.20;92.70;;;;;;4972701;28;20138;-75
2021/11/11 02:20:40;;;;;;;19.08;13.98;;;10.20;92.80;;;;;;5002736;28;20038;-75
2021/11/11 02:23:11;;;;;;;16.45;12.73;;;10.20;92.80;;;;;;4971921;28;20130;-78
2021/11/11 02:25:39;;;;;;;17.75;13.88;;;10.20;92.80;;;;;;4971827;28;20085;-78
2021/11/11 02:28:10;;;;;;;19.75;14.15;;;10.20;92.80;;;;;;5003060;28;20035;-74
2021/11/11 02:30:39;;;;;;;19.23;14.65;;;10.20;92.80;;;;;;4987336;28;20066;-74
2021/11/11 02:33:15;;;;;;;19.05;13.38;;;10.20;92.70;;;;;;4970747;28;20082;-76
2021/11/11 02:35:43;;;;;;;16.27;13.48;;;10.10;92.70;;;;;;4972057;28;20061;-78
2021/11/11 02:38:11;;;;;;;20.27;15.05;;;10.20;92.80;;;;;;5003220;28;20039;-74
2021/11/11 02:40:40;;;;;;;19.10;14.80;;;10.20;92.90;;;;;;4970704;28;20043;-78
2021/11/11 02:43:09;;;;;;;22.08;15.65;;;10.20;93.00;;;;;;4970875;28;20043;-74
2021/11/11 02:45:39;;;;;;;29.35;18.35;;;10.20;92.80;;;;;;4971093;28;20038;-74
2021/11/11 02:48:08;;;;;;;25.02;17.33;;;10.20;92.80;;;;;;4971360;28;21465;-74
2021/11/11 02:50:36;;;;;;;27.42;18.83;;;10.20;92.90;;;;;;4970878;28;20043;-78
2021/11/11 02:53:05;;;;;;;27.23;18.95;;;10.20;93.00;;;;;;4970934;28;20039;-74
2021/11/11 02:55:33;;;;;;;22.50;18.23;;;10.20;93.10;;;;;;4971917;28;20043;-79
2021/11/11 02:58:01;;;;;;;19.00;15.63;;;10.20;93.10;;;;;;5003222;28;20039;-78
2021/11/11 03:00:50;;;;;;;19.98;16.27;;;10.20;93.20;;;;;;4971465;28;20067;-76
2021/11/11 03:03:17;;;;;;;23.15;16.00;;;10.20;93.10;;;;;;4971118;28;20058;-74
2021/11/11 03:05:45;;;;;;;21.83;16.90;;;10.20;93.00;;;;;;5003463;28;20046;-78
2021/11/11 03:08:13;;;;;;;24.17;16.55;;;10.20;93.20;;;;;;4985933;28;20450;-75
2021/11/11 03:10:42;;;;;;;25.73;17.20;;;10.20;93.30;;;;;;5002990;28;20031;-75
2021/11/11 03:13:13;;;;;;;17.95;14.65;;;10.10;93.40;;;;;;4986280;28;20039;-76
2021/11/11 03:15:42;;;;;;;19.33;14.30;;;10.10;93.40;;;;;;4970322;28;20043;-76
2021/11/11 03:18:11;;;;;;;19.08;14.52;;;10.10;93.30;;;;;;5003228;28;20125;-74
2021/11/11 03:20:38;;;;;;;19.40;14.73;;;10.10;93.30;;;;;;5002952;28;20043;-78
2021/11/11 03:23:06;;;;;;;18.27;14.38;;;10.20;93.20;;;;;;5003109;28;20064;-76
2021/11/11 03:25:36;;;;;;;19.45;14.07;;;10.20;93.20;;;;;;5002688;28;20035;-74
2021/11/11 03:28:04;;;;;;;17.48;13.30;;;10.20;93.20;;;;;;5002499;28;20049;-74
2021/11/11 03:30:32;;;;;;;17.38;13.32;;;10.20;93.10;;;;;;4971359;28;20035;-74
2021/11/11 03:33:00;;;;;;;16.30;13.18;;;10.20;93.10;;;;;;4971658;28;20514;-77
2021/11/11 03:35:27;;;;;;;16.45;13.75;;;10.20;93.00;;;;;;5001819;28;20145;-77
2021/11/11 03:37:57;;;;;;;18.90;13.98;;;10.20;93.00;;;;;;4970294;28;20511;-76
2021/11/11 03:40:29;;;;;;;21.73;16.05;;;10.20;93.10;;;;;;5019309;28;20060;-78
2021/11/11 03:42:58;;;;;;;18.42;14.57;;;10.20;93.10;;;;;;5002679;28;20051;-78
2021/11/11 03:45:27;;;;;;;19.15;14.75;;;10.20;93.00;;;;;;5002727;28;20128;-78
2021/11/11 03:47:54;;;;;;;24.00;15.35;;;10.20;93.00;;;;;;4971654;28;20043;-74
2021/11/11 03:50:23;;;;;;;21.40;16.20;;;10.20;93.50;;;;;;4970123;28;20078;-74
2021/11/11 03:52:50;;;;;;;19.95;14.40;;;10.20;93.00;;;;;;4970907;28;20483;-76
2021/11/11 03:55:22;;;;;;;25.15;17.48;;;10.20;93.00;;;;;;4972032;28;20491;-74
2021/11/11 03:57:51;;;;;;;45.35;26.95;;;10.20;92.90;;;;;;5002094;28;20032;-74
2021/11/11 04:00:19;;;;;;;37.03;24.08;;;10.30;92.90;;;;;;4970880;28;20122;-74
2021/11/11 04:02:55;;;;;;;30.92;21.73;;;10.30;92.90;;;;;;4985099;28;20047;-74
2021/11/11 04:05:22;;;;;;;29.00;19.40;;;10.30;92.90;;;;;;4970550;28;20102;-74
2021/11/11 04:07:49;;;;;;;24.30;17.35;;;10.30;92.90;;;;;;4971539;28;20039;-78
2021/11/11 04:10:16;;;;;;;22.85;16.38;;;10.30;92.90;;;;;;5018255;28;20057;-75
2021/11/11 04:13:01;;;;;;;23.55;15.50;;;10.30;92.90;;;;;;4973435;28;20047;-74
2021/11/11 04:15:29;;;;;;;20.48;15.02;;;10.30;93.00;;;;;;4975211;28;20118;-74
2021/11/11 04:17:57;;;;;;;18.65;14.75;;;10.30;93.00;;;;;;4981584;28;20541;-74
2021/11/11 04:20:24;;;;;;;18.77;14.43;;;10.30;92.90;;;;;;4974529;28;20051;-74
2021/11/11 04:22:52;;;;;;;17.75;14.60;;;10.30;92.90;;;;;;4973746;28;20451;-74
2021/11/11 04:25:33;;;;;;;18.73;14.57;;;10.30;93.00;;;;;;4980595;28;20070;-74
2021/11/11 04:28:05;;;;;;;18.90;14.52;;;10.30;93.10;;;;;;4989304;28;20487;-76
2021/11/11 04:30:33;;;;;;;19.38;14.60;;;10.30;93.00;;;;;;4988930;28;20054;-78
2021/11/11 04:33:03;;;;;;;18.90;14.63;;;10.30;93.00;;;;;;5021704;28;20070;-78
2021/11/11 04:35:32;;;;;;;22.00;16.33;;;10.30;93.00;;;;;;5004171;28;20043;-76
2021/11/11 04:38:06;;;;;;;21.25;17.23;;;10.20;93.00;;;;;;5005566;28;20126;-74
2021/11/11 04:45:58;;;;;;;19.90;16.15;;;10.10;93.30;;;;;;4973710;28;20055;-75
2021/11/11 04:48:56;;;;;;;21.67;16.13;;;10.10;93.20;;;;;;5005447;28;20042;-74
2021/11/11 04:51:34;;;;;;;17.95;14.63;;;10.10;93.30;;;;;;5004788;28;20043;-78
2021/11/11 04:59:58;;;;;;;20.92;15.68;;;10.20;93.30;;;;;;4973359;28;20038;-74
2021/11/11 05:04:52;;;;;;;23.75;16.77;;;10.20;93.30;;;;;;4973985;28;20058;-74
2021/11/11 05:07:19;;;;;;;19.60;14.52;;;10.20;93.30;;;;;;4988654;28;20049;-78
2021/11/11 05:09:46;;;;;;;18.27;15.63;;;10.20;93.40;;;;;;4988872;28;20039;-76
2021/11/11 05:12:14;;;;;;;20.83;15.85;;;10.20;93.40;;;;;;4972469;28;20043;-78
2021/11/11 05:14:41;;;;;;;18.90;15.13;;;10.20;93.30;;;;;;5004908;28;20531;-74
2021/11/11 05:17:09;;;;;;;18.17;15.40;;;10.20;93.30;;;;;;4974371;28;20503;-78
2021/11/11 05:19:37;;;;;;;18.75;15.38;;;10.20;93.30;;;;;;5004144;28;20543;-76
2021/11/11 05:22:05;;;;;;;18.85;14.32;;;10.20;93.30;;;;;;4973154;28;20038;-76
2021/11/11 05:24:33;;;;;;;18.98;15.55;;;10.30;93.30;;;;;;5004419;28;20042;-78
2021/11/11 05:27:04;;;;;;;22.50;18.15;;;10.30;93.40;;;;;;5004752;28;20054;-73
2021/11/11 05:29:32;;;;;;;20.27;16.38;;;10.30;93.30;;;;;;5004397;28;20055;-76
2021/11/11 05:31:59;;;;;;;23.02;16.27;;;10.30;93.40;;;;;;5004145;28;20428;-79
2021/11/11 05:34:27;;;;;;;21.50;16.92;;;10.30;93.40;;;;;;4973697;28;20121;-74
2021/11/11 05:36:53;;;;;;;22.52;16.40;;;10.30;93.50;;;;;;5003601;28;20057;-76
2021/11/11 05:39:21;;;;;;;19.45;15.10;;;10.30;93.50;;;;;;5004781;28;20039;-78
2021/11/11 05:41:48;;;;;;;19.60;15.95;;;10.30;93.50;;;;;;4971236;28;20515;-74
2021/11/11 05:44:15;;;;;;;19.33;15.05;;;10.30;93.50;;;;;;4973528;28;20034;-78
2021/11/11 05:46:42;;;;;;;20.77;15.93;;;10.30;93.50;;;;;;4972601;28;20046;-74
2021/11/11 05:49:09;;;;;;;19.02;15.38;;;10.30;93.40;;;;;;5004002;28;20038;-73
2021/11/11 05:51:36;;;;;;;22.35;15.30;;;10.30;93.30;;;;;;5003826;28;20418;-74
2021/11/11 05:54:03;;;;;;;18.38;14.80;;;10.30;93.30;;;;;;5002808;28;20031;-76
2021/11/11 05:56:30;;;;;;;19.33;14.20;;;10.30;93.30;;;;;;5004042;28;20034;-74
2021/11/11 05:58:57;;;;;;;16.75;13.68;;;10.30;93.30;;;;;;4987734;28;20065;-74
2021/11/11 06:01:25;;;;;;;16.00;12.77;;;10.30;93.20;;;;;;4985525;28;20043;-76
2021/11/11 06:03:52;;;;;;;14.15;11.55;;;10.40;93.30;;;;;;4971872;28;20042;-76
2021/11/11 06:06:20;;;;;;;15.60;12.43;;;10.40;93.20;;;;;;4987897;28;20104;-78
2021/11/11 06:08:47;;;;;;;14.85;11.00;;;10.40;93.20;;;;;;4972629;28;20570;-73
2021/11/11 06:11:14;;;;;;;14.05;11.48;;;10.40;93.20;;;;;;5002436;28;20555;-75
2021/11/11 06:13:41;;;;;;;12.77;9.85;;;10.40;93.10;;;;;;4987871;28;20515;-76
2021/11/11 06:16:08;;;;;;;12.00;9.85;;;10.50;93.10;;;;;;4970854;28;20053;-76
2021/11/11 06:18:36;;;;;;;12.82;10.20;;;10.50;93.10;;;;;;4950073;28;20043;-74
2021/11/11 06:21:07;;;;;;;12.55;10.18;;;10.50;93.00;;;;;;4971673;28;20047;-78
2021/11/11 06:23:36;;;;;;;13.90;10.85;;;10.50;93.00;;;;;;4972589;28;20043;-74
2021/11/11 06:26:04;;;;;;;14.93;10.85;;;10.50;92.90;;;;;;4971481;28;20049;-73
2021/11/11 06:28:31;;;;;;;13.60;10.80;;;10.50;93.00;;;;;;5003635;28;20054;-73
2021/11/11 06:30:58;;;;;;;14.90;11.57;;;10.50;93.20;;;;;;4972790;28;20042;-76
2021/11/11 06:33:25;;;;;;;15.13;10.88;;;10.50;93.10;;;;;;4986815;28;20058;-77
2021/11/11 06:35:52;;;;;;;13.18;10.77;;;10.50;93.10;;;;;;4971050;28;20050;-75
2021/11/11 06:38:19;;;;;;;15.57;12.38;;;10.50;93.10;;;;;;5003516;28;20063;-75
2021/11/11 06:40:46;;;;;;;12.60;10.32;;;10.40;93.20;;;;;;4970749;28;20043;-73
2021/11/11 06:43:13;;;;;;;15.02;12.20;;;10.50;93.20;;;;;;4987181;28;20503;-75
2021/11/11 06:45:42;;;;;;;16.85;12.55;;;10.40;93.20;;;;;;4986347;28;20388;-74
2021/11/11 06:48:14;;;;;;;15.45;11.55;;;10.50;93.20;;;;;;4970423;28;20043;-78
2021/11/11 06:50:43;;;;;;;14.50;11.88;;;10.50;93.20;;;;;;4972128;28;20041;-78
2021/11/11 06:53:11;;;;;;;14.82;11.88;;;10.40;93.20;;;;;;4987088;28;20085;-78
2021/11/11 06:55:41;;;;;;;18.23;12.88;;;10.50;93.20;;;;;;4971629;28;20035;-78
2021/11/11 06:58:10;;;;;;;15.50;11.85;;;10.40;93.20;;;;;;5003074;28;20035;-74
2021/11/11 07:00:38;;;;;;;15.27;11.77;;;10.40;93.30;;;;;;4972341;28;20045;-78
2021/11/11 07:03:05;;;;;;;15.65;11.80;;;10.40;93.40;;;;;;5003094;28;20066;-74
2021/11/11 07:05:33;;;;;;;13.05;9.57;;;10.40;93.40;;;;;;4972127;28;20133;-73
2021/11/11 07:08:00;;;;;;;13.02;11.15;;;10.40;93.40;;;;;;4972521;28;20042;-77
2021/11/11 07:10:27;;;;;;;14.38;11.00;;;10.40;93.40;;;;;;4971618;28;20046;-78
2021/11/11 07:12:54;;;;;;;15.93;11.00;;;10.50;93.40;;;;;;4985941;28;20039;-74
2021/11/11 07:15:21;;;;;;;14.95;11.57;;;10.40;93.40;;;;;;5002564;28;20043;-78
2021/11/11 07:17:48;;;;;;;16.52;12.10;;;10.50;93.40;;;;;;4971907;28;20094;-79
2021/11/11 07:20:16;;;;;;;15.77;11.45;;;10.50;93.40;;;;;;4971893;28;20503;-74
2021/11/11 07:22:45;;;;;;;13.80;11.75;;;10.50;93.30;;;;;;4970650;28;20057;-74
2021/11/11 07:25:14;;;;;;;14.55;11.73;;;10.50;93.30;;;;;;4971750;28;20050;-78
2021/11/11 07:27:42;;;;;;;16.55;11.93;;;10.60;93.20;;;;;;4969827;28;20035;-73
2021/11/11 07:30:12;;;;;;;17.05;13.13;;;10.60;93.10;;;;;;4985689;28;20035;-78
2021/11/11 07:32:39;;;;;;;17.05;11.68;;;10.60;93.10;;;;;;4970008;28;20039;-73
2021/11/11 07:35:09;;;;;;;16.30;12.52;;;10.60;93.00;;;;;;4969280;28;20046;-74
2021/11/11 07:37:38;;;;;;;16.38;12.50;;;10.60;92.90;;;;;;4971566;28;20035;-75
2021/11/11 07:40:07;;;;;;;15.50;12.32;;;10.60;92.90;;;;;;4970924;28;20065;-77
2021/11/11 07:42:36;;;;;;;16.23;12.80;;;10.60;92.80;;;;;;4969921;28;20594;-76
2021/11/11 07:45:04;;;;;;;14.98;12.25;;;10.60;92.90;;;;;;4969311;28;20411;-78
2021/11/11 07:47:32;;;;;;;15.07;12.05;;;10.60;92.90;;;;;;4973135;28;20520;-78
2021/11/11 07:50:01;;;;;;;16.02;11.85;;;10.70;92.90;;;;;;5021842;28;20519;-74
2021/11/11 07:52:29;;;;;;;14.32;12.32;;;10.60;93.00;;;;;;4975283;28;20051;-74
2021/11/11 07:54:58;;;;;;;18.50;13.52;;;10.60;93.00;;;;;;4974530;28;20045;-74
2021/11/11 07:57:32;;;;;;;19.08;12.60;;;10.70;93.10;;;;;;4970964;28;20039;-76
2021/11/11 07:59:59;;;;;;;16.05;12.43;;;10.70;93.10;;;;;;4970006;28;20043;-78
2021/11/11 08:02:27;;;;;;;17.55;13.35;;;10.70;93.00;;;;;;4985764;28;20133;-76
2021/11/11 08:04:54;;;;;;;18.55;12.85;;;10.80;92.80;;;;;;4974786;28;20052;-76
2021/11/11 08:07:21;;;;;;;15.98;12.68;;;10.80;92.90;;;;;;4979780;28;20093;-76
2021/11/11 08:09:50;;;;;;;19.02;13.23;;;10.80;92.80;;;;;;4988198;28;20499;-74
2021/11/11 08:12:18;;;;;;;20.08;13.23;;;10.80;92.80;;;;;;4971013;28;20403;-74
2021/11/11 08:14:45;;;;;;;14.63;11.70;;;10.90;92.70;;;;;;4973284;28;20030;-74
2021/11/11 08:17:15;;;;;;;15.07;12.05;;;10.90;92.60;;;;;;5006394;28;20402;-74
2021/11/11 08:19:43;;;;;;;14.07;11.70;;;11.00;92.50;;;;;;5006141;28;20035;-73
2021/11/11 08:22:12;;;;;;;13.70;11.23;;;11.10;92.40;;;;;;4972376;28;20483;-78
2021/11/11 08:24:43;;;;;;;15.75;10.85;;;11.10;92.20;;;;;;4974875;28;20039;-77
2021/11/11 08:27:12;;;;;;;14.32;10.95;;;11.20;92.30;;;;;;4974387;28;20550;-78
2021/11/11 08:29:42;;;;;;;14.90;9.70;;;11.30;92.20;;;;;;5004591;28;20039;-75
2021/11/11 08:32:12;;;;;;;11.80;9.43;;;11.30;92.00;;;;;;4973648;28;20038;-73
2021/11/11 08:34:44;;;;;;;12.45;8.60;;;11.50;92.10;;;;;;4973006;28;20061;-73
2021/11/11 08:37:11;;;;;;;13.80;9.15;;;11.60;92.10;;;;;;4971982;28;20130;-78
2021/11/11 08:39:39;;;;;;;12.05;9.48;;;11.90;92.20;;;;;;4972789;28;20495;-74
2021/11/11 08:42:08;;;;;;;12.27;9.93;;;12.30;91.90;;;;;;4973778;28;20498;-79
2021/11/11 08:44:42;;;;;;;12.73;9.10;;;12.60;90.80;;;;;;4973552;28;20031;-78
2021/11/11 08:47:15;;;;;;;10.88;8.13;;;12.90;90.60;;;;;;4972221;28;20058;-79
2021/11/11 08:49:44;;;;;;;10.88;8.57;;;13.20;89.00;;;;;;4972092;28;20407;-79
2021/11/11 08:52:13;;;;;;;8.90;7.75;;;13.40;88.90;;;;;;4972389;28;20396;-75
2021/11/11 08:54:41;;;;;;;8.43;7.30;;;13.70;88.00;;;;;;5003893;28;20412;-80
2021/11/11 08:57:10;;;;;;;8.27;6.93;;;13.90;88.20;;;;;;4972476;28;20452;-75
2021/11/11 08:59:55;;;;;;;11.80;6.32;;;14.10;87.30;;;;;;4971449;28;20422;-72
2021/11/11 09:02:23;;;;;;;7.05;6.07;;;14.30;84.80;;;;;;4972963;28;20147;-74
2021/11/11 09:04:57;;;;;;;6.97;5.25;;;14.40;84.20;;;;;;4971728;28;20457;-79
2021/11/11 09:07:24;;;;;;;7.18;5.22;;;14.40;82.10;;;;;;4971662;28;20118;-76
2021/11/11 09:09:51;;;;;;;6.43;5.00;;;14.40;82.60;;;;;;4972885;28;20039;-78
2021/11/11 09:12:18;;;;;;;6.38;5.53;;;14.50;83.10;;;;;;4972626;28;20045;-79
2021/11/11 09:14:45;;;;;;;6.43;5.68;;;14.60;81.70;;;;;;4972805;28;20476;-79
2021/11/11 09:17:12;;;;;;;8.25;5.18;;;14.60;81.80;;;;;;5004233;28;20622;-78
2021/11/11 09:19:40;;;;;;;5.90;4.60;;;14.70;82.00;;;;;;4973838;28;20042;-73
2021/11/11 09:22:08;;;;;;;6.15;4.47;;;14.80;81.90;;;;;;4973787;28;20113;-72
2021/11/11 09:24:36;;;;;;;6.28;4.70;;;14.80;80.60;;;;;;4973220;28;20125;-79
2021/11/11 09:27:04;;;;;;;6.10;4.47;;;14.90;79.90;;;;;;4988574;28;20562;-76
2021/11/11 09:29:31;;;;;;;5.80;4.68;;;14.90;80.00;;;;;;5005461;28;20143;-78
2021/11/11 09:31:58;;;;;;;6.30;5.18;;;15.00;80.70;;;;;;4974026;28;20226;-78
2021/11/11 09:34:25;;;;;;;6.30;4.93;;;15.10;79.80;;;;;;4973669;28;20094;-76
2021/11/11 09:36:52;;;;;;;7.60;5.45;;;15.20;78.40;;;;;;4972610;28;20134;-78
2021/11/11 09:39:19;;;;;;;6.53;4.68;;;15.30;77.90;;;;;;5004479;28;20051;-73
2021/11/11 09:41:47;;;;;;;6.10;4.30;;;15.30;76.50;;;;;;4972943;28;20039;-73
2021/11/11 09:47:17;;;;;;;6.47;4.20;;;15.20;77.40;;;;;;5562300;23;20535;-78
2021/11/11 09:49:46;;;;;;;6.05;4.93;;;15.30;78.70;;;;;;4956364;28;20042;-73
2021/11/11 09:52:13;;;;;;;;;;;15.40;78.00;;;;;;4955992;29;20102;-76
2021/11/11 10:00:11;;;;;;;6.05;5.00;;;15.70;77.50;;;;;;4953142;28;20522;-79
2021/11/11 10:02:38;;;;;;;5.72;4.88;;;15.80;76.80;;;;;;4954455;28;20039;-72
2021/11/11 10:05:07;;;;;;;5.97;5.28;;;15.90;76.30;;;;;;4952711;29;20054;-71
2021/11/11 10:07:34;;;;;;;6.13;4.97;;;15.90;77.20;;;;;;4952099;29;20050;-74
2021/11/11 10:10:02;;;;;;;6.10;5.50;;;16.10;75.90;;;;;;4953377;28;20055;-74
2021/11/11 10:12:31;;;;;;;8.38;5.47;;;16.20;76.50;;;;;;4953530;29;20047;-75
2021/11/11 10:15:10;;;;;;;6.35;4.78;;;16.20;76.80;;;;;;4936402;29;20045;-76
2021/11/11 10:17:43;;;;;;;7.15;5.22;;;16.30;75.50;;;;;;4952521;29;20043;-73
2021/11/11 10:20:11;;;;;;;8.82;5.78;;;16.40;76.30;;;;;;4953391;28;20162;-79
2021/11/11 10:22:41;;;;;;;7.53;5.85;;;16.30;75.80;;;;;;4952764;28;20146;-76
2021/11/11 10:25:12;;;;;;;7.50;6.03;;;16.40;77.00;;;;;;4959033;28;20039;-75
2021/11/11 10:27:47;;;;;;;7.93;5.20;;;16.30;75.40;;;;;;4953171;28;20130;-70
2021/11/11 10:30:27;;;;;;;7.28;5.80;;;16.20;76.30;;;;;;4952895;29;20043;-73
2021/11/11 10:32:58;;;;;;;6.63;5.50;;;16.20;75.80;;;;;;4952730;28;20058;-74
2021/11/11 10:35:28;;;;;;;6.20;5.43;;;16.30;76.20;;;;;;4953142;29;21014;-73
2021/11/11 10:38:14;;;;;;;6.03;4.65;;;16.30;75.10;;;;;;4956169;29;20040;-78
2021/11/11 10:40:43;;;;;;;5.95;4.95;;;16.50;75.10;;;;;;4953649;28;20054;-73
2021/11/11 10:43:18;;;;;;;5.70;5.20;;;16.50;74.50;;;;;;4957480;29;20065;-78
2021/11/11 10:45:47;;;;;;;6.13;5.10;;;16.50;73.80;;;;;;4954622;28;20038;-73
2021/11/11 10:48:17;;;;;;;6.80;5.28;;;16.60;75.20;;;;;;4955868;28;20055;-77
2021/11/11 10:50:47;;;;;;;6.55;4.75;;;16.80;74.40;;;;;;4953712;29;20462;-73
2021/11/11 10:53:19;;;;;;;5.55;4.85;;;16.90;73.70;;;;;;4968224;28;20071;-74
2021/11/11 10:56:15;;;;;;;7.43;4.78;;;16.90;72.20;;;;;;4956011;28;20066;-76
2021/11/11 10:58:43;;;;;;;8.52;5.15;;;17.00;73.50;;;;;;4948761;29;20067;-72
2021/11/11 11:01:19;;;;;;;5.88;5.15;;;17.20;72.50;;;;;;4952488;28;20042;-78
2021/11/11 11:03:47;;;;;;;7.88;4.43;;;17.20;70.80;;;;;;4954244;29;20075;-77
2021/11/11 11:06:23;;;;;;;7.72;4.68;;;17.30;70.50;;;;;;4952803;28;20070;-78
2021/11/11 11:08:57;;;;;;;8.77;4.95;;;17.10;70.00;;;;;;4955100;28;20069;-72
2021/11/11 11:11:32;;;;;;;6.57;5.13;;;17.10;70.80;;;;;;4953168;28;20039;-78
2021/11/11 11:14:15;;;;;;;6.80;4.75;;;16.90;72.20;;;;;;4952258;28;20035;-72
2021/11/11 11:16:42;;;;;;;8.15;4.97;;;16.80;71.50;;;;;;4953023;28;20043;-77
2021/11/11 11:19:15;;;;;;;7.47;5.45;;;16.90;70.70;;;;;;4951895;28;20055;-73
2021/11/11 11:21:50;;;;;;;7.97;5.13;;;16.90;70.70;;;;;;4951934;28;20039;-77
2021/11/11 11:24:31;;;;;;;8.10;4.75;;;17.00;71.50;;;;;;4956871;29;20050;-79
2021/11/11 11:27:05;;;;;;;9.65;5.03;;;17.20;70.30;;;;;;4955386;29;20043;-72
2021/11/11 11:32:17;;;;;;;6.07;4.70;;;17.30;70.10;;;;;;4957562;28;20057;-78
2021/11/11 11:34:48;;;;;;;8.40;5.45;;;17.30;70.70;;;;;;4955484;29;20046;-76
2021/11/11 11:37:22;;;;;;;5.38;4.75;;;16.90;69.50;;;;;;4956514;29;20031;-78
2021/11/11 11:39:53;;;;;;;6.68;5.28;;;16.80;70.70;;;;;;4972205;28;20039;-73
2021/11/11 11:42:25;;;;;;;9.73;5.72;;;16.60;70.30;;;;;;4957377;28;20560;-73
2021/11/11 11:44:54;;;;;;;8.50;5.70;;;16.40;71.20;;;;;;4971749;28;20070;-73
2021/11/11 11:47:43;;;;;;;7.68;5.75;;;16.30;72.90;;;;;;4956115;28;20059;-74
2021/11/11 11:50:19;;;;;;;6.95;5.57;;;16.30;73.30;;;;;;4958081;28;20054;-77
2021/11/11 11:52:53;;;;;;;8.65;6.82;;;16.30;73.50;;;;;;4940284;28;20055;-77
2021/11/11 11:58:01;;;;;;;7.30;5.60;;;16.20;74.20;;;;;;4954560;28;19937;-73
2021/11/11 12:03:36;;;;;;;8.18;6.50;;;16.20;74.40;;;;;;4956798;29;20058;-79
2021/11/11 12:17:49;;;;;;;6.50;5.03;;;16.20;75.40;;;;;;4955043;29;20035;-73
2021/11/11 12:29:45;;;;;;;13.15;10.98;;;15.90;79.40;;;;;;4956104;28;21054;-76
2021/11/11 12:40:33;;;;;;;20.75;15.60;;;15.80;80.80;;;;;;4954904;29;20227;-80
2021/11/11 12:43:18;;;;;;;20.13;14.10;;;15.80;81.50;;;;;;4962941;28;20126;-80
2021/11/11 12:45:45;;;;;;;;;;;15.90;81.70;;;;;;4962807;28;20054;-74
2021/11/11 12:48:16;;;;;;;17.52;12.10;;;15.90;80.80;;;;;;4952417;29;19922;-77
2021/11/11 12:50:59;;;;;;;13.57;11.45;;;16.00;80.20;;;;;;4969681;28;20174;-75
2021/11/11 12:53:30;;;;;;;12.68;9.73;;;16.10;79.80;;;;;;4949978;28;20074;-80
2021/11/11 12:56:01;;;;;;;15.98;11.82;;;16.10;79.90;;;;;;4953596;29;20070;-72
2021/11/11 12:58:37;;;;;;;14.57;11.45;;;16.20;79.90;;;;;;4954861;28;20075;-78
2021/11/11 13:01:10;;;;;;;15.45;11.60;;;16.20;79.80;;;;;;4955273;29;20039;-73
2021/11/11 13:03:50;;;;;;;;;;;16.20;80.20;;;;;;4956170;29;20495;-73
2021/11/11 13:06:35;;;;;;;18.05;12.30;;;16.20;80.40;;;;;;4956315;28;19923;-73
2021/11/11 13:09:08;;;;;;;17.90;12.15;;;16.20;80.20;;;;;;4956867;28;20057;-73
2021/11/11 13:11:41;;;;;;;18.42;11.73;;;16.20;80.10;;;;;;4960179;28;20050;-73
2021/11/11 13:14:43;;;;;;;16.83;11.93;;;16.20;80.30;;;;;;4939367;29;20126;-74
2021/11/11 13:17:13;;;;;;;15.80;11.95;;;16.20;80.20;;;;;;4920013;28;20501;-74
2021/11/11 13:19:51;;;;;;;14.93;12.13;;;16.20;80.30;;;;;;4952812;29;20031;-73
2021/11/11 13:22:39;;;;;;;20.35;11.98;;;16.10;80.20;;;;;;4952065;29;20044;-73
2021/11/11 13:25:38;;;;;;;14.68;12.05;;;16.20;80.60;;;;;;4955268;29;20055;-73
2021/11/11 16:04:12;;;;;;;20.67;14.65;;;13.90;85.40;;;;;;4944129;28;20054;-72
2021/11/11 16:26:03;;;;;;;25.92;18.58;;;13.20;86.60;;;;;;4961208;28;20932;-79
2021/11/11 16:28:19;;;;;;;;;;;13.20;86.80;;;;;;4954846;28;20056;-82
2021/11/11 16:30:46;;;;;;;22.95;14.70;;;13.10;87.10;;;;;;4954777;28;20391;-82
2021/11/11 16:33:15;;;;;;;25.27;16.38;;;13.10;87.10;;;;;;4956279;28;20133;-75
2021/11/11 16:35:42;;;;;;;21.35;15.60;;;13.00;87.10;;;;;;4956192;28;20130;-78
2021/11/11 16:38:12;;;;;;;20.98;15.60;;;13.00;87.20;;;;;;4946152;28;20039;-76
2021/11/11 16:40:40;;;;;;;30.35;20.25;;;12.90;87.20;;;;;;4955231;29;20053;-78
2021/11/11 16:43:08;;;;;;;18.05;12.98;;;12.80;88.90;;;;;;4953383;28;20518;-81